Terminal Aerodrome Forecast
Issued by NWS Charleston, WV

Current Version | Previous Version | Graphics & Text | Print | Product List | Glossary On
Versions: 1 2 3 4 5 6 7 8 9 10 11 12 13 14 15 16 17 18 19 20 21 22 23
000
FTUS41 KRLX 091725
TAFHTS
TAF
KHTS 091725Z 0918/1018 26006KT 6SM -SN SCT019 OVC035
     FM092000 27006KT P6SM BKN035
     FM100400 00000KT P6SM BKN040
     FM100800 00000KT P6SM SCT035=

USA.gov is the U.S. government's official web portal to all federal, state and local government web resources and services.